sensor_id;sensor_type;location;lat;lon;timestamp;temperature;humidity
12436;DHT22;6282;51.440;6.938;2022-12-29T00:00:13;9.90;99.90
12436;DHT22;6282;51.440;6.938;2022-12-29T00:05:09;10.00;99.90
12436;DHT22;6282;51.440;6.938;2022-12-29T00:07:36;9.80;99.90
12436;DHT22;6282;51.440;6.938;2022-12-29T00:10:03;10.30;99.90
12436;DHT22;6282;51.440;6.938;2022-12-29T00:15:11;9.80;99.90
12436;DHT22;6282;51.440;6.938;2022-12-29T00:17:55;10.20;99.90
12436;DHT22;6282;51.440;6.938;2022-12-29T00:20:24;10.00;99.90
12436;DHT22;6282;51.440;6.938;2022-12-29T00:23:23;10.10;99.90
12436;DHT22;6282;51.440;6.938;2022-12-29T00:26:12;9.90;99.90
12436;DHT22;6282;51.440;6.938;2022-12-29T00:31:44;9.80;99.90
12436;DHT22;6282;51.440;6.938;2022-12-29T00:34:28;10.10;99.90
12436;DHT22;6282;51.440;6.938;2022-12-29T00:37:14;9.90;99.90
12436;DHT22;6282;51.440;6.938;2022-12-29T00:39:41;10.10;99.90
12436;DHT22;6282;51.440;6.938;2022-12-29T00:42:25;9.60;99.90
12436;DHT22;6282;51.440;6.938;2022-12-29T00:45:18;9.50;99.90
12436;DHT22;6282;51.440;6.938;2022-12-29T00:47:45;9.90;99.90
12436;DHT22;6282;51.440;6.938;2022-12-29T00:50:11;9.50;99.90
12436;DHT22;6282;51.440;6.938;2022-12-29T00:52:38;10.20;99.90
12436;DHT22;6282;51.440;6.938;2022-12-29T00:57:33;9.70;99.90
12436;DHT22;6282;51.440;6.938;2022-12-29T00:59:59;9.80;99.90
12436;DHT22;6282;51.440;6.938;2022-12-29T01:02:26;9.80;99.90
12436;DHT22;6282;51.440;6.938;2022-12-29T01:09:48;9.70;99.90
12436;DHT22;6282;51.440;6.938;2022-12-29T01:12:33;10.30;99.90
12436;DHT22;6282;51.440;6.938;2022-12-29T01:15:12;10.00;99.90
12436;DHT22;6282;51.440;6.938;2022-12-29T01:17:39;10.20;99.90
12436;DHT22;6282;51.440;6.938;2022-12-29T01:20:06;10.20;99.90
12436;DHT22;6282;51.440;6.938;2022-12-29T01:25:02;10.30;99.90
12436;DHT22;6282;51.440;6.938;2022-12-29T01:32:23;10.30;99.90
12436;DHT22;6282;51.440;6.938;2022-12-29T01:39:44;10.40;99.90
12436;DHT22;6282;51.440;6.938;2022-12-29T01:42:15;10.70;99.90
12436;DHT22;6282;51.440;6.938;2022-12-29T01:44:49;10.40;99.90
12436;DHT22;6282;51.440;6.938;2022-12-29T01:47:22;10.60;99.90
12436;DHT22;6282;51.440;6.938;2022-12-29T01:49:50;10.90;99.90
12436;DHT22;6282;51.440;6.938;2022-12-29T01:52:18;10.90;99.90
12436;DHT22;6282;51.440;6.938;2022-12-29T01:54:49;10.60;99.90
12436;DHT22;6282;51.440;6.938;2022-12-29T01:57:21;10.60;99.90
12436;DHT22;6282;51.440;6.938;2022-12-29T01:59:53;10.60;99.90
12436;DHT22;6282;51.440;6.938;2022-12-29T02:02:21;11.10;99.90
12436;DHT22;6282;51.440;6.938;2022-12-29T02:04:48;11.10;99.90
12436;DHT22;6282;51.440;6.938;2022-12-29T02:07:18;10.90;99.90
12436;DHT22;6282;51.440;6.938;2022-12-29T02:09:47;10.90;99.90
12436;DHT22;6282;51.440;6.938;2022-12-29T02:12:16;11.00;99.90
12436;DHT22;6282;51.440;6.938;2022-12-29T02:14:45;10.90;99.90
12436;DHT22;6282;51.440;6.938;2022-12-29T02:17:20;11.00;99.90
12436;DHT22;6282;51.440;6.938;2022-12-29T02:20:22;11.00;99.90
12436;DHT22;6282;51.440;6.938;2022-12-29T02:23:06;11.00;99.90
12436;DHT22;6282;51.440;6.938;2022-12-29T02:25:53;11.00;99.90
12436;DHT22;6282;51.440;6.938;2022-12-29T02:29:00;11.00;99.90
12436;DHT22;6282;51.440;6.938;2022-12-29T02:31:33;11.20;99.90
12436;DHT22;6282;51.440;6.938;2022-12-29T02:34:09;11.10;99.90
12436;DHT22;6282;51.440;6.938;2022-12-29T02:36:43;11.00;99.90
12436;DHT22;6282;51.440;6.938;2022-12-29T02:39:15;11.20;99.90
12436;DHT22;6282;51.440;6.938;2022-12-29T02:41:56;11.20;99.90
12436;DHT22;6282;51.440;6.938;2022-12-29T02:44:29;11.30;99.90
12436;DHT22;6282;51.440;6.938;2022-12-29T02:47:04;11.30;99.90
12436;DHT22;6282;51.440;6.938;2022-12-29T02:49:39;11.20;99.90
12436;DHT22;6282;51.440;6.938;2022-12-29T02:52:13;11.40;99.90
12436;DHT22;6282;51.440;6.938;2022-12-29T02:54:42;11.40;99.90
12436;DHT22;6282;51.440;6.938;2022-12-29T02:57:12;11.40;99.90
12436;DHT22;6282;51.440;6.938;2022-12-29T02:59:41;11.20;99.90
12436;DHT22;6282;51.440;6.938;2022-12-29T03:02:37;11.40;99.90
12436;DHT22;6282;51.440;6.938;2022-12-29T03:05:19;11.50;99.90
12436;DHT22;6282;51.440;6.938;2022-12-29T03:07:57;11.70;99.90
12436;DHT22;6282;51.440;6.938;2022-12-29T03:10:35;11.30;99.90
12436;DHT22;6282;51.440;6.938;2022-12-29T03:13:11;11.20;99.90
12436;DHT22;6282;51.440;6.938;2022-12-29T03:16:04;11.10;99.90
12436;DHT22;6282;51.440;6.938;2022-12-29T03:18:41;11.40;99.90
12436;DHT22;6282;51.440;6.938;2022-12-29T03:21:13;11.20;99.90
12436;DHT22;6282;51.440;6.938;2022-12-29T03:23:43;11.20;99.90
12436;DHT22;6282;51.440;6.938;2022-12-29T03:26:14;11.40;99.90
12436;DHT22;6282;51.440;6.938;2022-12-29T03:28:45;11.70;99.90
12436;DHT22;6282;51.440;6.938;2022-12-29T03:31:13;11.20;99.90
12436;DHT22;6282;51.440;6.938;2022-12-29T03:33:43;11.50;99.90
12436;DHT22;6282;51.440;6.938;2022-12-29T03:36:12;11.40;99.90
12436;DHT22;6282;51.440;6.938;2022-12-29T03:38:45;11.30;99.90
12436;DHT22;6282;51.440;6.938;2022-12-29T03:41:17;11.80;99.90
12436;DHT22;6282;51.440;6.938;2022-12-29T03:43:45;11.40;99.90
12436;DHT22;6282;51.440;6.938;2022-12-29T03:46:12;11.40;99.90
12436;DHT22;6282;51.440;6.938;2022-12-29T03:48:39;11.30;99.90
12436;DHT22;6282;51.440;6.938;2022-12-29T03:51:07;11.50;99.90
12436;DHT22;6282;51.440;6.938;2022-12-29T03:53:34;11.40;99.90
12436;DHT22;6282;51.440;6.938;2022-12-29T03:58:28;11.40;99.90
12436;DHT22;6282;51.440;6.938;2022-12-29T04:08:18;11.50;99.90
12436;DHT22;6282;51.440;6.938;2022-12-29T04:10:44;11.50;99.90
12436;DHT22;6282;51.440;6.938;2022-12-29T04:18:07;11.40;99.90
12436;DHT22;6282;51.440;6.938;2022-12-29T04:20:34;11.60;99.90
12436;DHT22;6282;51.440;6.938;2022-12-29T04:23:19;12.00;99.90
12436;DHT22;6282;51.440;6.938;2022-12-29T04:25:46;11.60;99.90
12436;DHT22;6282;51.440;6.938;2022-12-29T04:30:40;11.90;99.90
12436;DHT22;6282;51.440;6.938;2022-12-29T04:33:07;11.80;99.90
12436;DHT22;6282;51.440;6.938;2022-12-29T04:35:34;11.70;99.90
12436;DHT22;6282;51.440;6.938;2022-12-29T04:38:01;11.80;99.90
12436;DHT22;6282;51.440;6.938;2022-12-29T04:40:29;11.90;99.90
12436;DHT22;6282;51.440;6.938;2022-12-29T04:42:56;11.80;99.90
12436;DHT22;6282;51.440;6.938;2022-12-29T04:45:23;11.90;99.90
12436;DHT22;6282;51.440;6.938;2022-12-29T04:47:50;11.90;99.90
12436;DHT22;6282;51.440;6.938;2022-12-29T04:50:17;11.80;99.90
12436;DHT22;6282;51.440;6.938;2022-12-29T04:55:11;11.90;99.90
12436;DHT22;6282;51.440;6.938;2022-12-29T04:57:39;11.90;99.90
12436;DHT22;6282;51.440;6.938;2022-12-29T05:00:07;11.80;99.90
12436;DHT22;6282;51.440;6.938;2022-12-29T05:02:35;11.70;99.90
12436;DHT22;6282;51.440;6.938;2022-12-29T05:05:02;12.40;99.90
12436;DHT22;6282;51.440;6.938;2022-12-29T05:09:58;12.10;99.90
12436;DHT22;6282;51.440;6.938;2022-12-29T05:12:25;12.40;99.90
12436;DHT22;6282;51.440;6.938;2022-12-29T05:14:56;12.00;99.90
12436;DHT22;6282;51.440;6.938;2022-12-29T05:19:50;11.70;99.90
12436;DHT22;6282;51.440;6.938;2022-12-29T05:27:12;11.70;99.90
12436;DHT22;6282;51.440;6.938;2022-12-29T05:32:07;12.90;99.90
12436;DHT22;6282;51.440;6.938;2022-12-29T05:39:29;11.40;99.90
12436;DHT22;6282;51.440;6.938;2022-12-29T05:41:55;12.00;99.90
12436;DHT22;6282;51.440;6.938;2022-12-29T05:44:22;11.40;99.90
12436;DHT22;6282;51.440;6.938;2022-12-29T05:49:17;11.40;99.90
12436;DHT22;6282;51.440;6.938;2022-12-29T05:51:44;10.80;99.90
12436;DHT22;6282;51.440;6.938;2022-12-29T06:01:33;10.80;99.90
12436;DHT22;6282;51.440;6.938;2022-12-29T06:04:00;10.90;99.90
12436;DHT22;6282;51.440;6.938;2022-12-29T06:06:28;10.70;99.90
12436;DHT22;6282;51.440;6.938;2022-12-29T06:13:49;10.80;99.90
12436;DHT22;6282;51.440;6.938;2022-12-29T06:18:43;10.50;99.90
12436;DHT22;6282;51.440;6.938;2022-12-29T06:21:09;10.30;99.90
12436;DHT22;6282;51.440;6.938;2022-12-29T06:23:38;11.30;99.90
12436;DHT22;6282;51.440;6.938;2022-12-29T06:26:04;10.40;99.90
12436;DHT22;6282;51.440;6.938;2022-12-29T06:28:31;10.70;99.90
12436;DHT22;6282;51.440;6.938;2022-12-29T06:38:21;11.20;99.90
12436;DHT22;6282;51.440;6.938;2022-12-29T06:40:50;11.00;99.90
12436;DHT22;6282;51.440;6.938;2022-12-29T06:43:16;11.50;99.90
12436;DHT22;6282;51.440;6.938;2022-12-29T06:48:10;11.40;99.90
12436;DHT22;6282;51.440;6.938;2022-12-29T06:53:04;11.00;99.90
12436;DHT22;6282;51.440;6.938;2022-12-29T06:55:31;11.30;99.90
12436;DHT22;6282;51.440;6.938;2022-12-29T06:57:59;11.10;99.90
12436;DHT22;6282;51.440;6.938;2022-12-29T07:00:26;11.20;99.90
12436;DHT22;6282;51.440;6.938;2022-12-29T07:02:55;11.00;99.90
12436;DHT22;6282;51.440;6.938;2022-12-29T07:10:17;11.00;99.90
12436;DHT22;6282;51.440;6.938;2022-12-29T07:12:44;10.90;99.90
12436;DHT22;6282;51.440;6.938;2022-12-29T07:15:12;11.00;99.90
12436;DHT22;6282;51.440;6.938;2022-12-29T07:17:39;11.10;99.90
12436;DHT22;6282;51.440;6.938;2022-12-29T07:20:07;11.20;99.90
12436;DHT22;6282;51.440;6.938;2022-12-29T07:22:34;11.30;99.90
12436;DHT22;6282;51.440;6.938;2022-12-29T07:25:01;11.10;99.90
12436;DHT22;6282;51.440;6.938;2022-12-29T07:27:56;11.40;99.90
12436;DHT22;6282;51.440;6.938;2022-12-29T07:30:25;11.30;99.90
12436;DHT22;6282;51.440;6.938;2022-12-29T07:32:51;11.40;99.90
12436;DHT22;6282;51.440;6.938;2022-12-29T07:35:18;10.90;99.90
12436;DHT22;6282;51.440;6.938;2022-12-29T07:37:45;11.00;99.90
12436;DHT22;6282;51.440;6.938;2022-12-29T07:42:39;11.10;99.90
12436;DHT22;6282;51.440;6.938;2022-12-29T07:45:07;11.30;99.90
12436;DHT22;6282;51.440;6.938;2022-12-29T07:47:36;11.20;99.90
12436;DHT22;6282;51.440;6.938;2022-12-29T07:50:04;11.00;99.90
12436;DHT22;6282;51.440;6.938;2022-12-29T07:57:37;11.20;99.90
12436;DHT22;6282;51.440;6.938;2022-12-29T08:00:05;11.40;99.90
12436;DHT22;6282;51.440;6.938;2022-12-29T08:02:32;11.00;99.90
12436;DHT22;6282;51.440;6.938;2022-12-29T08:05:00;11.20;99.90
12436;DHT22;6282;51.440;6.938;2022-12-29T08:07:27;11.00;99.90
12436;DHT22;6282;51.440;6.938;2022-12-29T08:09:54;10.90;99.90
12436;DHT22;6282;51.440;6.938;2022-12-29T08:14:47;11.00;99.90
12436;DHT22;6282;51.440;6.938;2022-12-29T08:17:14;10.80;99.90
12436;DHT22;6282;51.440;6.938;2022-12-29T08:22:10;11.40;99.90
12436;DHT22;6282;51.440;6.938;2022-12-29T08:24:37;11.30;99.90
12436;DHT22;6282;51.440;6.938;2022-12-29T08:34:34;11.40;99.90
12436;DHT22;6282;51.440;6.938;2022-12-29T08:37:01;11.10;99.90
12436;DHT22;6282;51.440;6.938;2022-12-29T08:39:29;11.00;99.90
12436;DHT22;6282;51.440;6.938;2022-12-29T08:41:56;10.90;99.90
12436;DHT22;6282;51.440;6.938;2022-12-29T08:44:23;10.80;99.90
12436;DHT22;6282;51.440;6.938;2022-12-29T08:46:50;10.80;99.90
12436;DHT22;6282;51.440;6.938;2022-12-29T08:49:16;11.50;99.90
12436;DHT22;6282;51.440;6.938;2022-12-29T08:51:43;11.20;99.90
12436;DHT22;6282;51.440;6.938;2022-12-29T08:56:38;10.80;99.90
12436;DHT22;6282;51.440;6.938;2022-12-29T08:59:05;11.10;99.90
12436;DHT22;6282;51.440;6.938;2022-12-29T09:01:32;10.50;99.90
12436;DHT22;6282;51.440;6.938;2022-12-29T09:04:01;10.50;99.90
12436;DHT22;6282;51.440;6.938;2022-12-29T09:06:28;10.80;99.90
12436;DHT22;6282;51.440;6.938;2022-12-29T09:11:24;10.60;99.90
12436;DHT22;6282;51.440;6.938;2022-12-29T09:13:58;10.60;99.90
12436;DHT22;6282;51.440;6.938;2022-12-29T09:16:25;10.80;99.90
12436;DHT22;6282;51.440;6.938;2022-12-29T09:18:52;10.90;99.90
12436;DHT22;6282;51.440;6.938;2022-12-29T09:23:47;11.10;99.90
12436;DHT22;6282;51.440;6.938;2022-12-29T09:26:14;11.50;99.90
12436;DHT22;6282;51.440;6.938;2022-12-29T09:28:41;10.90;99.90
12436;DHT22;6282;51.440;6.938;2022-12-29T09:31:11;11.10;99.90
12436;DHT22;6282;51.440;6.938;2022-12-29T09:33:38;10.90;99.90
12436;DHT22;6282;51.440;6.938;2022-12-29T09:36:05;11.10;99.90
12436;DHT22;6282;51.440;6.938;2022-12-29T09:38:32;10.70;99.90
12436;DHT22;6282;51.440;6.938;2022-12-29T09:41:04;10.80;99.90
12436;DHT22;6282;51.440;6.938;2022-12-29T09:43:57;10.90;99.90
12436;DHT22;6282;51.440;6.938;2022-12-29T09:46:27;10.80;99.90
12436;DHT22;6282;51.440;6.938;2022-12-29T09:49:06;11.10;99.90
12436;DHT22;6282;51.440;6.938;2022-12-29T09:51:36;10.80;99.90
12436;DHT22;6282;51.440;6.938;2022-12-29T09:54:17;11.00;99.90
12436;DHT22;6282;51.440;6.938;2022-12-29T09:56:47;11.20;99.90
12436;DHT22;6282;51.440;6.938;2022-12-29T09:59:18;10.90;99.90
12436;DHT22;6282;51.440;6.938;2022-12-29T10:01:51;11.00;99.90
12436;DHT22;6282;51.440;6.938;2022-12-29T10:04:19;10.80;99.90
12436;DHT22;6282;51.440;6.938;2022-12-29T10:06:54;11.20;99.90
12436;DHT22;6282;51.440;6.938;2022-12-29T10:09:30;10.70;99.90
12436;DHT22;6282;51.440;6.938;2022-12-29T10:12:06;11.00;99.90
12436;DHT22;6282;51.440;6.938;2022-12-29T10:14:47;11.30;99.90
12436;DHT22;6282;51.440;6.938;2022-12-29T10:17:27;11.00;99.90
12436;DHT22;6282;51.440;6.938;2022-12-29T10:20:11;11.20;99.90
12436;DHT22;6282;51.440;6.938;2022-12-29T10:22:53;11.10;99.90
12436;DHT22;6282;51.440;6.938;2022-12-29T10:25:26;10.90;99.90
12436;DHT22;6282;51.440;6.938;2022-12-29T10:27:56;10.80;99.90
12436;DHT22;6282;51.440;6.938;2022-12-29T10:30:34;11.30;99.90
12436;DHT22;6282;51.440;6.938;2022-12-29T10:33:05;10.90;99.90
12436;DHT22;6282;51.440;6.938;2022-12-29T10:35:35;11.10;99.90
12436;DHT22;6282;51.440;6.938;2022-12-29T10:38:12;11.00;99.90
12436;DHT22;6282;51.440;6.938;2022-12-29T10:40:45;11.10;99.90
12436;DHT22;6282;51.440;6.938;2022-12-29T10:43:20;11.10;99.90
12436;DHT22;6282;51.440;6.938;2022-12-29T10:45:48;11.00;99.90
12436;DHT22;6282;51.440;6.938;2022-12-29T10:48:20;11.10;99.90
12436;DHT22;6282;51.440;6.938;2022-12-29T10:50:48;11.10;99.90
12436;DHT22;6282;51.440;6.938;2022-12-29T10:53:21;11.00;99.90
12436;DHT22;6282;51.440;6.938;2022-12-29T10:55:49;11.10;99.90
12436;DHT22;6282;51.440;6.938;2022-12-29T10:58:17;11.00;99.90
12436;DHT22;6282;51.440;6.938;2022-12-29T11:00:49;11.30;99.90
12436;DHT22;6282;51.440;6.938;2022-12-29T11:03:46;11.20;99.90
12436;DHT22;6282;51.440;6.938;2022-12-29T11:06:18;10.70;99.90
12436;DHT22;6282;51.440;6.938;2022-12-29T11:08:55;11.20;99.90
12436;DHT22;6282;51.440;6.938;2022-12-29T11:11:25;10.90;99.90
12436;DHT22;6282;51.440;6.938;2022-12-29T11:13:56;11.10;99.90
12436;DHT22;6282;51.440;6.938;2022-12-29T11:16:30;11.00;99.90
12436;DHT22;6282;51.440;6.938;2022-12-29T11:19:00;11.00;99.90
12436;DHT22;6282;51.440;6.938;2022-12-29T11:21:32;11.30;99.90
12436;DHT22;6282;51.440;6.938;2022-12-29T11:24:01;11.00;99.90
12436;DHT22;6282;51.440;6.938;2022-12-29T11:26:29;11.00;99.90
12436;DHT22;6282;51.440;6.938;2022-12-29T11:29:20;11.20;99.90
12436;DHT22;6282;51.440;6.938;2022-12-29T11:31:50;11.30;99.90
12436;DHT22;6282;51.440;6.938;2022-12-29T11:34:21;11.10;99.90
12436;DHT22;6282;51.440;6.938;2022-12-29T11:36:51;11.70;99.90
12436;DHT22;6282;51.440;6.938;2022-12-29T11:39:31;11.20;99.90
12436;DHT22;6282;51.440;6.938;2022-12-29T11:41:59;11.00;99.90
12436;DHT22;6282;51.440;6.938;2022-12-29T11:44:36;11.30;99.90
12436;DHT22;6282;51.440;6.938;2022-12-29T11:47:05;11.40;99.90
12436;DHT22;6282;51.440;6.938;2022-12-29T11:49:36;11.00;99.90
12436;DHT22;6282;51.440;6.938;2022-12-29T11:52:03;10.80;99.90
12436;DHT22;6282;51.440;6.938;2022-12-29T11:54:33;11.40;99.90
12436;DHT22;6282;51.440;6.938;2022-12-29T11:57:09;11.10;99.90
12436;DHT22;6282;51.440;6.938;2022-12-29T11:59:41;11.20;99.90
12436;DHT22;6282;51.440;6.938;2022-12-29T12:02:31;11.50;99.90
12436;DHT22;6282;51.440;6.938;2022-12-29T12:05:05;11.30;99.90
12436;DHT22;6282;51.440;6.938;2022-12-29T12:07:39;11.40;99.90
12436;DHT22;6282;51.440;6.938;2022-12-29T12:10:15;11.00;99.90
12436;DHT22;6282;51.440;6.938;2022-12-29T12:12:47;11.20;99.90
12436;DHT22;6282;51.440;6.938;2022-12-29T12:15:19;11.40;99.90
12436;DHT22;6282;51.440;6.938;2022-12-29T12:17:51;11.50;99.90
12436;DHT22;6282;51.440;6.938;2022-12-29T12:20:22;11.10;99.90
12436;DHT22;6282;51.440;6.938;2022-12-29T12:22:59;11.40;99.90
12436;DHT22;6282;51.440;6.938;2022-12-29T12:25:31;11.10;99.90
12436;DHT22;6282;51.440;6.938;2022-12-29T12:28:09;10.90;99.90
12436;DHT22;6282;51.440;6.938;2022-12-29T12:30:40;11.40;99.90
12436;DHT22;6282;51.440;6.938;2022-12-29T12:33:18;11.00;99.90
12436;DHT22;6282;51.440;6.938;2022-12-29T12:36:04;11.10;99.90
12436;DHT22;6282;51.440;6.938;2022-12-29T12:38:39;10.80;99.90
12436;DHT22;6282;51.440;6.938;2022-12-29T12:41:13;11.40;99.90
12436;DHT22;6282;51.440;6.938;2022-12-29T12:43:45;10.90;99.90
12436;DHT22;6282;51.440;6.938;2022-12-29T12:46:28;11.30;99.90
12436;DHT22;6282;51.440;6.938;2022-12-29T12:49:16;11.40;99.90
12436;DHT22;6282;51.440;6.938;2022-12-29T12:51:52;11.20;99.90
12436;DHT22;6282;51.440;6.938;2022-12-29T12:54:34;11.00;99.90
12436;DHT22;6282;51.440;6.938;2022-12-29T12:57:12;11.00;99.90
12436;DHT22;6282;51.440;6.938;2022-12-29T12:59:50;10.90;99.90
12436;DHT22;6282;51.440;6.938;2022-12-29T13:02:32;10.80;99.90
12436;DHT22;6282;51.440;6.938;2022-12-29T13:05:15;11.00;99.90
12436;DHT22;6282;51.440;6.938;2022-12-29T13:07:54;11.20;99.90
12436;DHT22;6282;51.440;6.938;2022-12-29T13:10:31;11.00;99.90
12436;DHT22;6282;51.440;6.938;2022-12-29T13:13:28;11.00;99.90
12436;DHT22;6282;51.440;6.938;2022-12-29T13:16:02;11.10;99.90
12436;DHT22;6282;51.440;6.938;2022-12-29T13:18:37;10.90;99.90
12436;DHT22;6282;51.440;6.938;2022-12-29T13:21:21;11.30;99.90
12436;DHT22;6282;51.440;6.938;2022-12-29T13:23:56;11.00;99.90
12436;DHT22;6282;51.440;6.938;2022-12-29T13:26:32;10.90;99.90
12436;DHT22;6282;51.440;6.938;2022-12-29T13:29:10;11.00;99.90
12436;DHT22;6282;51.440;6.938;2022-12-29T13:31:45;10.70;99.90
12436;DHT22;6282;51.440;6.938;2022-12-29T13:34:21;10.50;99.90
12436;DHT22;6282;51.440;6.938;2022-12-29T13:36:54;10.70;99.90
12436;DHT22;6282;51.440;6.938;2022-12-29T13:39:29;10.70;99.90
12436;DHT22;6282;51.440;6.938;2022-12-29T13:41:59;10.70;99.90
12436;DHT22;6282;51.440;6.938;2022-12-29T13:44:31;10.70;99.90
12436;DHT22;6282;51.440;6.938;2022-12-29T13:47:02;10.70;99.90
12436;DHT22;6282;51.440;6.938;2022-12-29T13:49:32;10.40;99.90
12436;DHT22;6282;51.440;6.938;2022-12-29T13:52:08;10.50;99.90
12436;DHT22;6282;51.440;6.938;2022-12-29T13:54:45;10.80;99.90
12436;DHT22;6282;51.440;6.938;2022-12-29T13:57:31;10.90;99.90
12436;DHT22;6282;51.440;6.938;2022-12-29T14:00:04;11.00;99.90
12436;DHT22;6282;51.440;6.938;2022-12-29T14:02:42;10.60;99.90
12436;DHT22;6282;51.440;6.938;2022-12-29T14:05:28;10.30;99.90
12436;DHT22;6282;51.440;6.938;2022-12-29T14:07:58;10.80;99.90
12436;DHT22;6282;51.440;6.938;2022-12-29T14:10:32;10.70;99.90
12436;DHT22;6282;51.440;6.938;2022-12-29T14:13:04;10.70;99.90
12436;DHT22;6282;51.440;6.938;2022-12-29T14:15:32;10.60;99.90
12436;DHT22;6282;51.440;6.938;2022-12-29T14:18:13;10.40;99.90
12436;DHT22;6282;51.440;6.938;2022-12-29T14:20:52;10.60;99.90
12436;DHT22;6282;51.440;6.938;2022-12-29T14:23:36;10.30;99.90
12436;DHT22;6282;51.440;6.938;2022-12-29T14:26:13;10.80;99.90
12436;DHT22;6282;51.440;6.938;2022-12-29T14:28:41;10.50;99.90
12436;DHT22;6282;51.440;6.938;2022-12-29T14:31:34;10.70;99.90
12436;DHT22;6282;51.440;6.938;2022-12-29T14:36:59;10.30;99.90
12436;DHT22;6282;51.440;6.938;2022-12-29T14:39:37;10.60;99.90
12436;DHT22;6282;51.440;6.938;2022-12-29T14:42:10;10.50;99.90
12436;DHT22;6282;51.440;6.938;2022-12-29T14:44:46;10.60;99.90
12436;DHT22;6282;51.440;6.938;2022-12-29T14:47:18;10.50;99.90
12436;DHT22;6282;51.440;6.938;2022-12-29T14:49:46;10.70;99.90
12436;DHT22;6282;51.440;6.938;2022-12-29T14:52:17;10.90;99.90
12436;DHT22;6282;51.440;6.938;2022-12-29T14:54:54;10.30;99.90
12436;DHT22;6282;51.440;6.938;2022-12-29T14:57:35;10.80;99.90
12436;DHT22;6282;51.440;6.938;2022-12-29T15:00:14;10.50;99.90
12436;DHT22;6282;51.440;6.938;2022-12-29T15:02:45;10.20;99.90
12436;DHT22;6282;51.440;6.938;2022-12-29T15:05:27;10.50;99.90
12436;DHT22;6282;51.440;6.938;2022-12-29T15:07:56;10.20;99.90
12436;DHT22;6282;51.440;6.938;2022-12-29T15:10:24;10.70;99.90
12436;DHT22;6282;51.440;6.938;2022-12-29T15:12:54;10.50;99.90
12436;DHT22;6282;51.440;6.938;2022-12-29T15:15:24;10.30;99.90
12436;DHT22;6282;51.440;6.938;2022-12-29T15:17:51;10.30;99.90
12436;DHT22;6282;51.440;6.938;2022-12-29T15:20:24;10.40;99.90
12436;DHT22;6282;51.440;6.938;2022-12-29T15:22:54;10.60;99.90
12436;DHT22;6282;51.440;6.938;2022-12-29T15:25:21;10.40;99.90
12436;DHT22;6282;51.440;6.938;2022-12-29T15:27:50;10.40;99.90
12436;DHT22;6282;51.440;6.938;2022-12-29T15:30:20;10.20;99.90
12436;DHT22;6282;51.440;6.938;2022-12-29T15:32:48;10.40;99.90
12436;DHT22;6282;51.440;6.938;2022-12-29T15:35:29;10.60;99.90
12436;DHT22;6282;51.440;6.938;2022-12-29T15:37:57;10.60;99.90
12436;DHT22;6282;51.440;6.938;2022-12-29T15:40:26;10.60;99.90
12436;DHT22;6282;51.440;6.938;2022-12-29T15:43:06;10.50;99.90
12436;DHT22;6282;51.440;6.938;2022-12-29T15:45:36;10.40;99.90
12436;DHT22;6282;51.440;6.938;2022-12-29T15:48:04;10.30;99.90
12436;DHT22;6282;51.440;6.938;2022-12-29T15:50:34;10.40;99.90
12436;DHT22;6282;51.440;6.938;2022-12-29T15:53:03;10.00;99.90
12436;DHT22;6282;51.440;6.938;2022-12-29T15:55:38;9.90;99.90
12436;DHT22;6282;51.440;6.938;2022-12-29T15:58:18;10.20;99.90
12436;DHT22;6282;51.440;6.938;2022-12-29T16:00:50;10.30;99.90
12436;DHT22;6282;51.440;6.938;2022-12-29T16:03:19;10.10;99.90
12436;DHT22;6282;51.440;6.938;2022-12-29T16:05:52;10.30;99.90
12436;DHT22;6282;51.440;6.938;2022-12-29T16:08:29;10.00;99.90
12436;DHT22;6282;51.440;6.938;2022-12-29T16:10:58;10.10;99.90
12436;DHT22;6282;51.440;6.938;2022-12-29T16:13:28;10.30;99.90
12436;DHT22;6282;51.440;6.938;2022-12-29T16:16:00;9.80;99.90
12436;DHT22;6282;51.440;6.938;2022-12-29T16:18:30;10.00;99.90
12436;DHT22;6282;51.440;6.938;2022-12-29T16:20:57;10.10;99.90
12436;DHT22;6282;51.440;6.938;2022-12-29T16:23:27;9.80;99.90
12436;DHT22;6282;51.440;6.938;2022-12-29T16:25:56;9.60;99.90
12436;DHT22;6282;51.440;6.938;2022-12-29T16:28:26;10.00;99.90
12436;DHT22;6282;51.440;6.938;2022-12-29T16:31:01;9.60;99.90
12436;DHT22;6282;51.440;6.938;2022-12-29T16:33:36;9.50;99.90
12436;DHT22;6282;51.440;6.938;2022-12-29T16:36:29;9.60;99.90
12436;DHT22;6282;51.440;6.938;2022-12-29T16:39:28;9.60;99.90
12436;DHT22;6282;51.440;6.938;2022-12-29T16:41:56;10.00;99.90
12436;DHT22;6282;51.440;6.938;2022-12-29T16:44:25;9.70;99.90
12436;DHT22;6282;51.440;6.938;2022-12-29T16:47:16;9.60;99.90
12436;DHT22;6282;51.440;6.938;2022-12-29T16:49:49;10.30;99.90
12436;DHT22;6282;51.440;6.938;2022-12-29T16:52:19;9.70;99.90
12436;DHT22;6282;51.440;6.938;2022-12-29T16:54:51;9.70;99.90
12436;DHT22;6282;51.440;6.938;2022-12-29T16:57:25;9.60;99.90
12436;DHT22;6282;51.440;6.938;2022-12-29T16:59:56;9.50;99.90
12436;DHT22;6282;51.440;6.938;2022-12-29T17:02:26;10.20;99.90
12436;DHT22;6282;51.440;6.938;2022-12-29T17:04:54;9.70;99.90
12436;DHT22;6282;51.440;6.938;2022-12-29T17:07:22;9.80;99.90
12436;DHT22;6282;51.440;6.938;2022-12-29T17:12:20;9.90;99.90
12436;DHT22;6282;51.440;6.938;2022-12-29T17:14:48;9.90;99.90
12436;DHT22;6282;51.440;6.938;2022-12-29T17:17:21;9.10;99.90
12436;DHT22;6282;51.440;6.938;2022-12-29T17:19:51;8.80;99.90
12436;DHT22;6282;51.440;6.938;2022-12-29T17:22:21;8.90;99.90
12436;DHT22;6282;51.440;6.938;2022-12-29T17:24:49;8.50;99.90
12436;DHT22;6282;51.440;6.938;2022-12-29T17:27:26;8.30;99.90
12436;DHT22;6282;51.440;6.938;2022-12-29T17:29:56;8.30;99.90
12436;DHT22;6282;51.440;6.938;2022-12-29T17:32:23;8.20;99.90
12436;DHT22;6282;51.440;6.938;2022-12-29T17:34:52;7.90;99.90
12436;DHT22;6282;51.440;6.938;2022-12-29T17:37:30;8.20;99.90
12436;DHT22;6282;51.440;6.938;2022-12-29T17:39:58;8.30;99.90
12436;DHT22;6282;51.440;6.938;2022-12-29T17:42:25;7.90;99.90
12436;DHT22;6282;51.440;6.938;2022-12-29T17:47:19;8.20;99.90
12436;DHT22;6282;51.440;6.938;2022-12-29T17:49:45;8.00;99.90
12436;DHT22;6282;51.440;6.938;2022-12-29T17:52:15;8.20;99.90
12436;DHT22;6282;51.440;6.938;2022-12-29T17:54:45;8.10;99.90
12436;DHT22;6282;51.440;6.938;2022-12-29T17:57:14;8.10;99.90
12436;DHT22;6282;51.440;6.938;2022-12-29T17:59:41;8.10;99.90
12436;DHT22;6282;51.440;6.938;2022-12-29T18:02:33;8.00;99.90
12436;DHT22;6282;51.440;6.938;2022-12-29T18:04:59;7.80;99.90
12436;DHT22;6282;51.440;6.938;2022-12-29T18:07:28;8.00;99.90
12436;DHT22;6282;51.440;6.938;2022-12-29T18:09:55;7.80;99.90
12436;DHT22;6282;51.440;6.938;2022-12-29T18:12:29;7.70;99.90
12436;DHT22;6282;51.440;6.938;2022-12-29T18:14:56;7.70;99.90
12436;DHT22;6282;51.440;6.938;2022-12-29T18:22:21;7.50;99.90
12436;DHT22;6282;51.440;6.938;2022-12-29T18:24:49;7.50;99.90
12436;DHT22;6282;51.440;6.938;2022-12-29T18:29:47;7.60;99.90
12436;DHT22;6282;51.440;6.938;2022-12-29T18:32:14;7.90;99.90
12436;DHT22;6282;51.440;6.938;2022-12-29T18:34:41;7.70;99.90
12436;DHT22;6282;51.440;6.938;2022-12-29T18:39:36;7.70;99.90
12436;DHT22;6282;51.440;6.938;2022-12-29T18:42:04;7.40;99.90